Time;durP1;ratioP1;P1;durP2;ratioP2;P2;SDS_P1;SDS_P2;PMS_P1;PMS_P2;Temp;Humidity;BMP_temperature;BMP_pressure;BME280_temperature;BME280_humidity;BME280_pressure;Samples;Min_cycle;Max_cycle;Signal;HPM_P1;HPM_P2
2023/10/13 00:00:34;;;;;;;15.55;10.30;;;14.40;99.90;;;;;;5013055;28;20221;-86
2023/10/13 00:03:00;;;;;;;17.13;11.23;;;14.40;99.90;;;;;;5014348;28;20187;-83
2023/10/13 00:05:33;;;;;;;18.50;12.00;;;14.40;99.90;;;;;;5014225;28;20652;-83
2023/10/13 00:08:03;;;;;;;23.05;12.45;;;14.40;99.90;;;;;;5014444;28;20194;-83
2023/10/13 00:10:35;;;;;;;17.52;12.25;;;14.50;99.90;;;;;;5016800;28;20190;-83
2023/10/13 00:13:06;;;;;;;20.15;11.73;;;14.50;99.90;;;;;;5016959;28;20167;-85
2023/10/13 00:15:39;;;;;;;17.45;11.18;;;14.50;99.90;;;;;;5016741;28;20610;-83
2023/10/13 00:18:12;;;;;;;18.88;11.50;;;14.50;99.90;;;;;;5018053;28;20167;-87
2023/10/13 00:20:49;;;;;;;17.33;11.57;;;14.50;99.90;;;;;;5016840;28;20258;-82
2023/10/13 00:23:20;;;;;;;18.17;12.45;;;14.50;99.90;;;;;;5016701;28;20556;-82
2023/10/13 00:25:56;;;;;;;22.48;11.85;;;14.50;99.90;;;;;;5499486;22;20574;-89
2023/10/13 00:28:35;;;;;;;19.55;12.60;;;14.50;99.90;;;;;;5066905;28;20182;-90
2023/10/13 00:31:10;;;;;;;27.50;13.23;;;14.50;99.90;;;;;;5057859;28;20653;-89
2023/10/13 00:33:37;;;;;;;22.60;13.02;;;14.60;99.90;;;;;;5057989;28;20542;-88
2023/10/13 00:36:07;;;;;;;17.23;12.18;;;14.60;99.90;;;;;;5058145;28;20197;-87
2023/10/13 00:38:32;;;;;;;19.02;12.98;;;14.70;99.90;;;;;;5058375;28;20166;-83
2023/10/13 00:41:49;;;;;;;20.95;13.07;;;14.70;99.90;;;;;;5057953;28;20181;-89
2023/10/13 00:44:07;;;;;;;23.58;12.90;;;14.60;99.90;;;;;;5053851;28;20193;-89
2023/10/13 00:46:44;;;;;;;21.35;13.27;;;14.60;99.90;;;;;;5040323;28;20519;-90
2023/10/13 00:49:10;;;;;;;24.45;14.40;;;14.60;99.90;;;;;;5058269;28;20154;-90
2023/10/13 00:51:40;;;;;;;21.90;14.13;;;14.60;99.90;;;;;;5058041;28;20273;-88
2023/10/13 00:54:12;;;;;;;24.85;13.13;;;14.60;99.90;;;;;;5060449;28;20166;-86
2023/10/13 00:56:46;;;;;;;19.55;13.52;;;14.60;99.90;;;;;;5077929;28;20258;-90
2023/10/13 00:59:14;;;;;;;22.40;13.43;;;14.60;99.90;;;;;;5078334;28;20157;-89
2023/10/13 01:01:42;;;;;;;22.45;13.85;;;14.60;99.90;;;;;;5078111;28;20173;-89
2023/10/13 01:04:12;;;;;;;26.30;14.07;;;14.60;99.90;;;;;;5078207;28;20181;-89
2023/10/13 01:06:43;;;;;;;28.08;14.85;;;14.60;99.90;;;;;;5077902;28;20173;-90
2023/10/13 01:09:16;;;;;;;22.45;13.82;;;14.60;99.90;;;;;;5078070;28;20197;-89
2023/10/13 01:11:52;;;;;;;22.63;13.93;;;14.60;99.90;;;;;;5077643;28;20248;-91
2023/10/13 01:14:23;;;;;;;24.08;14.02;;;14.60;99.90;;;;;;5077409;28;20588;-84
2023/10/13 01:16:52;;;;;;;20.25;13.27;;;14.70;99.90;;;;;;5058948;28;20224;-86
2023/10/13 01:19:24;;;;;;;23.20;13.30;;;14.70;99.90;;;;;;5075934;28;20158;-85
2023/10/13 01:22:02;;;;;;;19.15;12.90;;;14.70;99.90;;;;;;5076633;28;20157;-83
2023/10/13 01:24:34;;;;;;;20.63;13.15;;;14.80;99.90;;;;;;5075482;28;20208;-83
2023/10/13 01:27:14;;;;;;;21.90;13.30;;;14.70;99.90;;;;;;5058364;28;20258;-82
2023/10/13 01:29:40;;;;;;;18.52;13.05;;;14.80;99.90;;;;;;5076546;28;20157;-83
2023/10/13 01:32:06;;;;;;;17.77;12.25;;;14.80;99.90;;;;;;5076597;28;20252;-83
2023/10/13 01:34:33;;;;;;;19.40;12.10;;;14.80;99.90;;;;;;5076490;28;20173;-81
2023/10/13 01:37:05;;;;;;;27.02;13.07;;;14.80;99.90;;;;;;5076628;28;20213;-89
2023/10/13 01:39:31;;;;;;;19.23;11.40;;;14.80;99.90;;;;;;5076434;28;20554;-82
2023/10/13 01:41:57;;;;;;;16.92;11.13;;;14.80;99.90;;;;;;5076060;28;20260;-81
2023/10/13 01:44:33;;;;;;;17.55;11.27;;;14.80;99.90;;;;;;5076326;28;20247;-81
2023/10/13 01:47:06;;;;;;;14.40;9.85;;;14.80;99.90;;;;;;5076320;28;20509;-86
2023/10/13 01:49:47;;;;;;;17.48;10.43;;;14.80;99.90;;;;;;5076069;28;20669;-82
2023/10/13 01:52:17;;;;;;;17.80;10.85;;;14.90;99.90;;;;;;5076026;28;20654;-83
2023/10/13 01:54:50;;;;;;;18.95;10.85;;;14.90;99.90;;;;;;5076054;28;20176;-82
2023/10/13 01:57:18;;;;;;;15.90;10.25;;;14.90;99.90;;;;;;5056996;28;20505;-81
2023/10/13 01:59:47;;;;;;;16.05;10.75;;;14.90;99.90;;;;;;5076076;28;20164;-83
2023/10/13 02:02:14;;;;;;;16.02;9.50;;;14.90;99.90;;;;;;5057847;28;20519;-84
2023/10/13 02:04:49;;;;;;;15.00;9.63;;;14.90;99.90;;;;;;5075888;28;20550;-82
2023/10/13 02:07:16;;;;;;;14.27;10.02;;;14.90;99.90;;;;;;5058065;28;20259;-82
2023/10/13 02:09:45;;;;;;;18.52;10.65;;;14.90;99.90;;;;;;5075909;28;20162;-82
2023/10/13 02:12:11;;;;;;;14.85;9.88;;;14.90;99.90;;;;;;5057532;28;20255;-82
2023/10/13 02:14:37;;;;;;;15.32;9.25;;;15.00;99.90;;;;;;5075646;28;20179;-82
2023/10/13 02:17:12;;;;;;;18.35;10.15;;;14.90;99.90;;;;;;5057888;28;20598;-82
2023/10/13 02:19:43;;;;;;;15.60;9.30;;;15.00;99.90;;;;;;5059278;28;20169;-83
2023/10/13 02:22:10;;;;;;;13.43;9.43;;;15.00;99.90;;;;;;5075527;28;20173;-84
2023/10/13 02:24:40;;;;;;;17.63;9.60;;;15.00;99.90;;;;;;5057483;28;20239;-82
2023/10/13 02:27:13;;;;;;;14.50;9.75;;;15.00;99.90;;;;;;5074972;28;20201;-81
2023/10/13 02:29:45;;;;;;;15.77;9.63;;;15.00;99.90;;;;;;5075507;28;20229;-82
2023/10/13 02:32:21;;;;;;;15.75;8.98;;;15.00;99.90;;;;;;5073901;28;20551;-83
2023/10/13 02:34:47;;;;;;;16.85;10.18;;;15.00;99.90;;;;;;5075387;28;20169;-84
2023/10/13 02:37:13;;;;;;;13.82;9.05;;;15.00;99.90;;;;;;5075420;28;20231;-83
2023/10/13 02:39:42;;;;;;;19.45;9.77;;;15.00;99.90;;;;;;5057784;28;20753;-89
2023/10/13 02:42:31;;;;;;;13.85;9.57;;;15.00;99.90;;;;;;5057736;28;20177;-87
2023/10/13 02:44:57;;;;;;;12.10;9.05;;;15.00;99.90;;;;;;5075000;28;20199;-85
2023/10/13 02:47:26;;;;;;;15.77;9.07;;;15.00;99.90;;;;;;5057669;28;20230;-88
2023/10/13 02:49:52;;;;;;;17.92;9.38;;;15.00;99.90;;;;;;5074331;28;20256;-86
2023/10/13 02:52:17;;;;;;;16.60;9.25;;;14.90;99.90;;;;;;5074043;28;20185;-84
2023/10/13 02:54:47;;;;;;;13.10;8.73;;;14.90;99.90;;;;;;5075211;28;20250;-84
2023/10/13 02:57:15;;;;;;;14.63;9.13;;;14.90;99.90;;;;;;5073459;28;20213;-85
2023/10/13 02:59:50;;;;;;;11.43;8.45;;;14.90;99.90;;;;;;5075101;28;20154;-82
2023/10/13 03:04:50;;;;;;;12.45;8.63;;;14.90;99.90;;;;;;5075014;28;20170;-84
2023/10/13 03:07:22;;;;;;;13.18;8.60;;;14.90;99.90;;;;;;5057079;28;20574;-81
2023/10/13 03:09:52;;;;;;;13.60;8.52;;;14.90;99.90;;;;;;5057020;28;20216;-82
2023/10/13 03:12:18;;;;;;;12.02;8.13;;;14.80;99.90;;;;;;5073229;28;20227;-82
2023/10/13 03:14:55;;;;;;;14.55;8.43;;;14.80;99.90;;;;;;5074869;28;20169;-85
2023/10/13 03:17:33;;;;;;;12.75;8.25;;;14.80;99.90;;;;;;5056862;28;20184;-81
2023/10/13 03:20:00;;;;;;;10.20;8.02;;;14.80;99.90;;;;;;5074572;28;20160;-85
2023/10/13 03:22:32;;;;;;;11.15;8.15;;;14.70;99.90;;;;;;5074503;28;20176;-85
2023/10/13 03:25:13;;;;;;;13.13;7.82;;;14.80;99.90;;;;;;5073191;28;20267;-81
2023/10/13 03:27:42;;;;;;;11.95;8.48;;;14.70;99.90;;;;;;5074409;28;20211;-85
2023/10/13 03:30:13;;;;;;;9.77;7.30;;;14.70;99.90;;;;;;5074494;28;20181;-81
2023/10/13 03:32:47;;;;;;;12.20;7.97;;;14.70;99.90;;;;;;5073183;28;20188;-85
2023/10/13 03:35:16;;;;;;;12.52;8.50;;;14.70;99.90;;;;;;5074395;28;20193;-81
2023/10/13 03:37:43;;;;;;;11.65;8.10;;;14.60;99.90;;;;;;5073308;28;20180;-84
2023/10/13 03:43:04;;;;;;;11.85;8.00;;;14.60;99.90;;;;;;5073646;28;20168;-82
2023/10/13 03:45:52;;;;;;;11.93;7.97;;;14.70;99.90;;;;;;5074367;28;20196;-85
2023/10/13 03:51:06;;;;;;;11.85;7.80;;;14.80;99.90;;;;;;5074553;28;20192;-86
2023/10/13 03:53:54;;;;;;;10.43;7.97;;;14.80;99.90;;;;;;5074091;28;20183;-84
2023/10/13 03:56:27;;;;;;;11.60;7.28;;;14.70;99.90;;;;;;5073831;28;20247;-83
2023/10/13 04:04:15;;;;;;;11.18;7.90;;;14.80;99.90;;;;;;5074431;28;20677;-87
2023/10/13 04:17:22;;;;;;;15.27;7.40;;;14.80;99.90;;;;;;5058456;28;20201;-82
2023/10/13 04:36:16;;;;;;;10.00;7.25;;;15.00;99.90;;;;;;5074300;28;20643;-83
2023/10/13 04:41:42;;;;;;;14.18;7.70;;;15.00;99.90;;;;;;5073848;28;20588;-85
2023/10/13 04:47:07;;;;;;;11.82;7.57;;;15.10;99.90;;;;;;5074055;28;20239;-87
2023/10/13 04:52:26;;;;;;;14.65;7.68;;;15.20;99.90;;;;;;5073635;28;20507;-82
2023/10/13 04:54:59;;;;;;;10.60;7.63;;;15.20;99.90;;;;;;5057047;28;20173;-84
2023/10/13 05:51:43;;;;;;;10.43;7.80;;;15.40;99.90;;;;;;5076297;28;20612;-82
2023/10/13 06:29:57;;;;;;;10.55;7.38;;;15.80;99.90;;;;;;5075749;28;20199;-82
2023/10/13 06:32:26;;;;;;;11.75;7.18;;;15.80;99.90;;;;;;5075312;28;20201;-81
2023/10/13 06:34:57;;;;;;;11.98;6.63;;;15.80;99.90;;;;;;5057270;28;20173;-82
2023/10/13 06:37:30;;;;;;;13.75;7.53;;;15.90;99.90;;;;;;5075278;28;20608;-82
2023/10/13 06:39:59;;;;;;;10.93;6.88;;;15.90;99.90;;;;;;5075110;28;20177;-82
2023/10/13 06:42:28;;;;;;;9.55;6.95;;;15.90;99.90;;;;;;5074829;28;20537;-84
2023/10/13 06:44:55;;;;;;;13.25;7.30;;;15.90;99.90;;;;;;5075082;28;20200;-84
2023/10/13 06:47:24;;;;;;;10.48;6.97;;;16.00;99.90;;;;;;5075062;28;20173;-82
2023/10/13 06:49:51;;;;;;;14.05;7.03;;;16.00;99.90;;;;;;5074892;28;20187;-82
2023/10/13 06:52:23;;;;;;;13.70;7.60;;;16.00;99.90;;;;;;5057235;28;20234;-81
2023/10/13 06:54:53;;;;;;;12.98;7.53;;;16.10;99.90;;;;;;5074857;28;20227;-83
2023/10/13 06:57:22;;;;;;;14.05;7.82;;;16.10;99.90;;;;;;5074423;28;20244;-83
2023/10/13 06:59:49;;;;;;;13.57;7.63;;;16.10;99.90;;;;;;5075083;28;20242;-82
2023/10/13 07:02:33;;;;;;;13.32;7.75;;;16.10;99.90;;;;;;5074990;28;20248;-86
2023/10/13 07:05:11;;;;;;;14.00;7.93;;;16.10;99.90;;;;;;5075019;28;20252;-88
2023/10/13 07:07:38;;;;;;;14.85;7.82;;;16.10;99.90;;;;;;5075296;28;20157;-88
2023/10/13 07:10:16;;;;;;;18.35;9.10;;;16.10;99.90;;;;;;5075256;28;20260;-88
2023/10/13 07:12:45;;;;;;;15.70;8.75;;;16.10;99.90;;;;;;5074757;28;20173;-90
2023/10/13 07:15:10;;;;;;;15.38;8.48;;;16.10;99.90;;;;;;5075070;28;20173;-90
2023/10/13 07:17:40;;;;;;;13.05;7.60;;;16.10;99.90;;;;;;5074711;28;20252;-89
2023/10/13 07:22:40;;;;;;;12.30;7.47;;;16.10;99.90;;;;;;5075372;28;20176;-90
2023/10/13 07:25:06;;;;;;;12.63;7.97;;;16.10;99.90;;;;;;5074828;28;20225;-88
2023/10/13 07:27:35;;;;;;;11.30;7.65;;;16.10;99.90;;;;;;5075155;28;20238;-89
2023/10/13 07:30:39;;;;;;;9.80;8.07;;;16.10;99.90;;;;;;5075113;28;20165;-88
2023/10/13 07:32:57;;;;;;;10.95;7.45;;;16.10;99.90;;;;;;5070695;28;20260;-89
2023/10/13 07:35:26;;;;;;;14.30;8.35;;;16.20;99.90;;;;;;5075038;28;20587;-88
2023/10/13 07:37:54;;;;;;;12.90;8.00;;;16.20;99.90;;;;;;5074986;28;20169;-89
2023/10/13 07:43:09;;;;;;;8.73;7.55;;;16.20;99.90;;;;;;5074684;28;20168;-89
2023/10/13 07:45:37;;;;;;;13.27;8.18;;;16.20;99.90;;;;;;5056966;28;20176;-88
2023/10/13 07:48:20;;;;;;;13.60;9.00;;;16.20;99.90;;;;;;5074970;28;20178;-88
2023/10/13 07:50:58;;;;;;;13.63;8.65;;;16.30;99.90;;;;;;5075266;28;20161;-88
2023/10/13 07:53:24;;;;;;;13.20;8.60;;;16.40;99.90;;;;;;5074922;28;20161;-90
2023/10/13 07:55:55;;;;;;;13.68;8.88;;;16.40;99.90;;;;;;5074974;28;20303;-88
2023/10/13 07:58:27;;;;;;;13.70;8.15;;;16.50;99.90;;;;;;5056623;28;20580;-89
2023/10/13 08:08:38;;;;;;;12.48;7.00;;;16.50;99.90;;;;;;5074527;28;20156;-84
2023/10/13 08:11:24;;;;;;;10.40;6.63;;;16.50;99.90;;;;;;5056344;28;20204;-88
2023/10/13 08:13:54;;;;;;;9.77;7.15;;;16.50;99.90;;;;;;5074352;28;20260;-84
2023/10/13 08:16:29;;;;;;;9.55;6.38;;;16.60;99.90;;;;;;5056392;28;20555;-85
2023/10/13 08:18:55;;;;;;;9.63;6.90;;;16.60;99.90;;;;;;5074232;28;20222;-82
2023/10/13 08:21:24;;;;;;;12.93;6.82;;;16.60;99.90;;;;;;5074191;28;20600;-85
2023/10/13 08:34:59;;;;;;;13.93;6.88;;;16.70;99.90;;;;;;5078118;28;20181;-80
2023/10/13 08:48:12;;;;;;;10.68;6.75;;;16.90;99.90;;;;;;5078147;28;20219;-81
2023/10/13 08:53:28;;;;;;;8.23;6.22;;;17.00;99.90;;;;;;5077763;28;20210;-88
2023/10/13 09:04:28;;;;;;;8.80;6.00;;;17.30;99.90;;;;;;5077479;28;20196;-81
2023/10/13 09:07:08;;;;;;;9.10;5.47;;;17.30;99.90;;;;;;5077201;28;20164;-81
2023/10/13 09:12:18;;;;;;;11.23;5.35;;;17.30;99.90;;;;;;5076872;28;20742;-82
2023/10/13 09:14:56;;;;;;;10.82;5.38;;;17.30;99.90;;;;;;5076989;28;20188;-80
2023/10/13 09:20:19;;;;;;;7.57;4.95;;;17.40;99.90;;;;;;5076978;28;20153;-81
2023/10/13 09:22:54;;;;;;;8.13;4.53;;;17.50;99.90;;;;;;5058979;28;20181;-83
2023/10/13 09:25:23;;;;;;;12.25;4.30;;;17.50;99.90;;;;;;5076569;28;20235;-81
2023/10/13 09:27:53;;;;;;;7.47;4.35;;;17.60;99.90;;;;;;5076546;28;20588;-81
2023/10/13 09:30:22;;;;;;;9.27;4.22;;;17.60;99.90;;;;;;5076656;28;20179;-82
2023/10/13 09:33:04;;;;;;;10.52;4.30;;;17.60;99.90;;;;;;5058471;28;20225;-86
2023/10/13 09:35:33;;;;;;;5.82;4.22;;;17.60;99.90;;;;;;5076576;28;20217;-82
2023/10/13 09:38:03;;;;;;;7.95;4.28;;;17.70;99.90;;;;;;5076748;28;20521;-82
2023/10/13 09:43:07;;;;;;;7.53;4.00;;;17.70;99.90;;;;;;5076140;28;20567;-84
2023/10/13 09:45:43;;;;;;;5.28;4.03;;;17.70;99.90;;;;;;5076414;28;20165;-83
2023/10/13 09:48:26;;;;;;;9.80;4.10;;;17.70;99.90;;;;;;5076337;28;20489;-83
2023/10/13 09:50:59;;;;;;;6.28;4.10;;;17.80;99.90;;;;;;5076456;28;20256;-81
2023/10/13 09:53:25;;;;;;;7.07;3.92;;;17.80;99.90;;;;;;5042432;28;20514;-81
2023/10/13 09:56:01;;;;;;;8.65;4.30;;;17.80;99.90;;;;;;5058017;28;20212;-82
2023/10/13 09:58:36;;;;;;;7.20;4.10;;;17.90;99.90;;;;;;5076069;28;20650;-82
2023/10/13 10:01:09;;;;;;;10.05;4.40;;;17.90;99.90;;;;;;5076252;28;20624;-81
2023/10/13 10:03:52;;;;;;;6.13;4.03;;;18.00;99.90;;;;;;5076143;28;20623;-81
2023/10/13 10:06:30;;;;;;;8.43;4.45;;;18.00;99.90;;;;;;5057960;28;20177;-82
2023/10/13 10:09:13;;;;;;;9.00;4.35;;;18.00;99.90;;;;;;5075802;28;20169;-80
2023/10/13 10:11:45;;;;;;;9.45;4.10;;;18.10;99.90;;;;;;5057680;28;20552;-82
2023/10/13 10:14:28;;;;;;;13.18;4.57;;;18.10;99.90;;;;;;5075651;28;20492;-81
2023/10/13 10:17:09;;;;;;;13.68;4.78;;;18.10;99.90;;;;;;5075616;28;20276;-81
2023/10/13 10:19:56;;;;;;;9.93;4.70;;;18.20;99.90;;;;;;5075778;28;20206;-81
2023/10/13 10:22:36;;;;;;;8.38;4.22;;;18.30;99.90;;;;;;5075840;28;20271;-84
2023/10/13 10:28:01;;;;;;;11.90;3.95;;;18.40;99.90;;;;;;5075311;28;20623;-81
2023/10/13 10:30:28;;;;;;;8.93;3.72;;;18.40;99.90;;;;;;5058033;28;20193;-84
2023/10/13 10:33:01;;;;;;;8.88;4.15;;;18.60;99.90;;;;;;5075471;28;20165;-83
2023/10/13 10:35:32;;;;;;;16.80;4.90;;;18.60;99.90;;;;;;5075433;28;20256;-84
2023/10/13 10:38:11;;;;;;;9.60;4.10;;;18.70;99.90;;;;;;5075441;28;20168;-83
2023/10/13 10:40:56;;;;;;;9.50;4.55;;;18.70;99.90;;;;;;5057526;28;20184;-82
2023/10/13 10:43:25;;;;;;;11.00;4.70;;;18.90;99.90;;;;;;5057030;28;20264;-81
2023/10/13 10:45:51;;;;;;;10.10;4.30;;;19.00;99.90;;;;;;5075267;28;20493;-80
2023/10/13 10:48:18;;;;;;;11.05;4.07;;;19.00;99.90;;;;;;5075122;28;20170;-81
2023/10/13 10:50:53;;;;;;;11.10;4.45;;;19.10;99.90;;;;;;5075383;28;20189;-83
2023/10/13 10:53:22;;;;;;;7.78;3.78;;;19.20;99.90;;;;;;5056117;28;20176;-82
2023/10/13 10:55:48;;;;;;;9.52;4.45;;;19.20;99.90;;;;;;5074843;28;20205;-88
2023/10/13 10:58:29;;;;;;;11.60;4.68;;;19.30;99.90;;;;;;5056922;28;20188;-82
2023/10/13 11:01:10;;;;;;;11.05;4.43;;;19.30;99.90;;;;;;5059398;28;20207;-81
2023/10/13 11:03:41;;;;;;;16.33;4.72;;;19.30;99.90;;;;;;5056916;28;20670;-82
2023/10/13 11:06:17;;;;;;;16.20;4.60;;;19.30;99.90;;;;;;5056990;28;20191;-85
2023/10/13 11:08:50;;;;;;;13.13;4.10;;;19.50;99.90;;;;;;5074830;28;20488;-84
2023/10/13 11:11:17;;;;;;;11.27;4.88;;;19.60;99.90;;;;;;5074768;28;20181;-82
2023/10/13 11:13:54;;;;;;;9.63;4.40;;;19.70;99.90;;;;;;5074194;28;20157;-81
2023/10/13 11:16:24;;;;;;;15.10;4.25;;;19.70;99.90;;;;;;5074435;28;20296;-82
2023/10/13 11:19:11;;;;;;;10.25;4.10;;;19.80;99.90;;;;;;5074481;28;20232;-82
2023/10/13 11:21:38;;;;;;;11.98;3.83;;;19.90;99.90;;;;;;5074556;28;20149;-82
2023/10/13 11:24:11;;;;;;;12.32;4.32;;;20.00;99.90;;;;;;5056464;28;20603;-84
2023/10/13 11:26:49;;;;;;;16.27;4.00;;;20.10;99.90;;;;;;5074246;28;20316;-82
2023/10/13 11:29:36;;;;;;;13.88;4.53;;;20.20;99.90;;;;;;5074261;28;20663;-83
2023/10/13 11:32:02;;;;;;;13.38;4.13;;;20.20;99.90;;;;;;5074244;28;20465;-83
2023/10/13 11:34:39;;;;;;;14.00;4.40;;;20.30;99.90;;;;;;5074388;28;20162;-84
2023/10/13 11:37:28;;;;;;;11.60;4.80;;;20.30;99.90;;;;;;5056548;28;20592;-82
2023/10/13 11:39:51;;;;;;;17.63;4.60;;;20.30;99.90;;;;;;5074461;28;20179;-82
2023/10/13 11:42:17;;;;;;;11.00;4.20;;;20.30;99.90;;;;;;5074191;28;20173;-87
2023/10/13 11:44:43;;;;;;;16.30;5.00;;;20.20;99.90;;;;;;5074722;28;20650;-84
2023/10/13 11:47:32;;;;;;;9.02;4.10;;;20.20;99.90;;;;;;5074690;28;20196;-88
2023/10/13 11:49:59;;;;;;;11.38;4.78;;;20.20;99.90;;;;;;5074760;28;20188;-86
2023/10/13 11:52:30;;;;;;;14.27;4.55;;;20.20;99.90;;;;;;5056601;28;20225;-90
2023/10/13 11:54:55;;;;;;;11.27;4.13;;;20.20;99.90;;;;;;5074430;28;20168;-86
2023/10/13 11:57:22;;;;;;;12.23;3.83;;;20.20;99.90;;;;;;5073116;28;20204;-84
2023/10/13 11:59:55;;;;;;;10.32;4.40;;;20.20;99.90;;;;;;5073698;28;20200;-86
2023/10/13 12:04:56;;;;;;;15.25;4.53;;;20.30;99.90;;;;;;5077489;28;20198;-84
2023/10/13 12:10:15;;;;;;;12.70;4.22;;;20.30;99.90;;;;;;5078542;28;20183;-85
2023/10/13 12:12:48;;;;;;;14.25;4.32;;;20.30;99.90;;;;;;5060218;28;20177;-86
2023/10/13 12:15:25;;;;;;;15.77;4.28;;;20.30;99.90;;;;;;5060374;28;20615;-83
2023/10/13 12:17:51;;;;;;;12.73;4.07;;;20.40;99.90;;;;;;5078345;28;20168;-89
2023/10/13 12:20:32;;;;;;;13.70;5.05;;;20.40;99.90;;;;;;5078242;28;20179;-83
2023/10/13 12:23:09;;;;;;;12.07;4.68;;;20.40;99.90;;;;;;5077844;28;20154;-86
2023/10/13 12:25:54;;;;;;;15.60;5.32;;;20.50;99.90;;;;;;5059874;28;20228;-94
2023/10/13 12:28:23;;;;;;;16.80;4.97;;;20.70;99.90;;;;;;5077907;28;20248;-84
2023/10/13 12:30:49;;;;;;;15.13;4.43;;;20.80;99.90;;;;;;5077951;28;20208;-85
2023/10/13 12:33:25;;;;;;;15.50;4.70;;;20.90;99.90;;;;;;5077586;28;20649;-83
2023/10/13 12:49:49;;;;;;;14.60;4.40;;;21.40;99.90;;;;;;5077650;28;20626;-85
2023/10/13 12:52:31;;;;;;;14.27;4.68;;;21.50;99.90;;;;;;5076379;28;20169;-83
2023/10/13 12:57:27;;;;;;;13.70;4.60;;;21.30;99.90;;;;;;5077181;28;20201;-85
2023/10/13 12:59:54;;;;;;;11.27;4.43;;;21.20;99.90;;;;;;5060149;28;20264;-85
2023/10/13 13:02:24;;;;;;;12.23;4.43;;;21.10;99.90;;;;;;5059664;28;20238;-87
2023/10/13 13:04:54;;;;;;;18.15;4.97;;;21.10;99.90;;;;;;5077485;28;20157;-86
2023/10/13 13:07:20;;;;;;;16.25;4.50;;;21.10;99.90;;;;;;5077372;28;20252;-88
2023/10/13 13:09:46;;;;;;;16.25;4.43;;;21.10;99.90;;;;;;5059247;28;20264;-90
2023/10/13 13:12:12;;;;;;;15.55;4.47;;;21.10;99.90;;;;;;5077113;28;20634;-82
2023/10/13 13:14:41;;;;;;;15.10;4.70;;;21.10;99.90;;;;;;5075489;28;20299;-87
2023/10/13 13:17:07;;;;;;;15.50;5.53;;;21.30;99.90;;;;;;5076508;28;20520;-82
2023/10/13 13:19:39;;;;;;;13.43;4.80;;;21.50;99.90;;;;;;5059318;28;20184;-86
2023/10/13 13:22:11;;;;;;;12.48;5.20;;;21.70;99.90;;;;;;5059025;28;20177;-82
2023/10/13 13:24:43;;;;;;;11.68;4.82;;;21.60;99.90;;;;;;5059259;28;20196;-82
2023/10/13 13:27:13;;;;;;;10.55;5.05;;;21.60;99.90;;;;;;5077202;28;20189;-87
2023/10/13 13:29:46;;;;;;;12.48;5.30;;;21.50;99.90;;;;;;5059458;28;20161;-86
2023/10/13 13:32:24;;;;;;;13.30;4.28;;;21.40;99.90;;;;;;5059111;28;20226;-85
2023/10/13 13:35:13;;;;;;;16.25;4.90;;;21.70;99.90;;;;;;5059146;28;20211;-91
2023/10/13 13:37:39;;;;;;;15.75;5.32;;;21.70;99.90;;;;;;5058911;28;20201;-86
2023/10/13 13:40:15;;;;;;;16.63;4.97;;;21.60;99.90;;;;;;5076803;28;20230;-83
2023/10/13 13:42:45;;;;;;;14.55;5.15;;;21.60;99.90;;;;;;5058651;28;20479;-86
2023/10/13 13:45:21;;;;;;;14.85;5.10;;;21.60;99.90;;;;;;5075428;28;20172;-86
2023/10/13 13:47:53;;;;;;;15.52;5.13;;;21.70;99.90;;;;;;5076706;28;20227;-84
2023/10/13 13:50:31;;;;;;;13.23;4.78;;;22.00;99.90;;;;;;5076460;28;20650;-87
2023/10/13 13:52:59;;;;;;;18.48;5.20;;;22.10;99.90;;;;;;5076563;28;20215;-86
2023/10/13 13:55:28;;;;;;;15.07;4.60;;;22.20;99.90;;;;;;5058434;28;20182;-84
2023/10/13 13:57:57;;;;;;;12.63;5.10;;;22.20;99.90;;;;;;5058052;28;20622;-82
2023/10/13 14:00:37;;;;;;;10.20;4.47;;;22.20;99.90;;;;;;5076377;28;20173;-83
2023/10/13 14:03:12;;;;;;;12.48;5.35;;;22.10;99.90;;;;;;5058364;28;20595;-81
2023/10/13 14:05:45;;;;;;;15.25;5.10;;;21.90;99.90;;;;;;5076195;28;20168;-85
2023/10/13 14:08:15;;;;;;;11.52;5.10;;;21.70;99.90;;;;;;5058082;28;20179;-86
2023/10/13 14:16:16;;;;;;;16.83;5.30;;;21.60;99.90;;;;;;5075959;28;20242;-89
2023/10/13 14:18:51;;;;;;;13.98;5.15;;;21.50;99.90;;;;;;5075973;28;20161;-84
2023/10/13 14:21:18;;;;;;;15.52;5.28;;;21.50;99.90;;;;;;5076006;28;20188;-85
2023/10/13 14:23:49;;;;;;;9.60;5.20;;;21.40;99.90;;;;;;5075900;28;20654;-84
2023/10/13 14:26:21;;;;;;;17.10;5.53;;;21.40;99.90;;;;;;5057576;28;20697;-85
2023/10/13 14:29:09;;;;;;;13.00;5.30;;;21.40;99.90;;;;;;5057642;28;20187;-85
2023/10/13 14:31:36;;;;;;;13.98;5.28;;;21.50;99.90;;;;;;5057687;28;20173;-85
2023/10/13 14:34:03;;;;;;;15.38;5.95;;;21.50;99.90;;;;;;5075544;28;20176;-84
2023/10/13 14:36:29;;;;;;;13.88;5.22;;;21.70;99.90;;;;;;5075442;28;20217;-84
2023/10/13 14:38:58;;;;;;;13.65;5.70;;;21.80;99.90;;;;;;5074390;28;20608;-86
2023/10/13 14:41:24;;;;;;;17.92;5.18;;;21.90;99.90;;;;;;5075598;28;20181;-84
2023/10/13 14:43:49;;;;;;;14.25;5.05;;;21.90;99.90;;;;;;5073836;28;20179;-87
2023/10/13 14:46:16;;;;;;;15.02;5.28;;;21.80;99.90;;;;;;5075385;28;20240;-84
2023/10/13 14:48:43;;;;;;;14.85;5.57;;;21.70;99.90;;;;;;5075256;28;20215;-85
2023/10/13 14:51:18;;;;;;;11.98;5.25;;;21.70;99.90;;;;;;5075261;28;20173;-85
2023/10/13 14:53:48;;;;;;;16.00;5.80;;;21.70;99.90;;;;;;5075039;28;20191;-85
2023/10/13 14:56:15;;;;;;;13.90;5.47;;;21.70;99.90;;;;;;5075195;28;20296;-90
2023/10/13 14:58:42;;;;;;;12.27;5.13;;;21.70;99.90;;;;;;5057434;28;20177;-85
2023/10/13 15:01:15;;;;;;;15.57;4.90;;;21.60;99.90;;;;;;5057407;28;20216;-85
2023/10/13 15:03:42;;;;;;;17.35;5.13;;;21.50;99.90;;;;;;5075437;28;20177;-88
2023/10/13 15:06:17;;;;;;;12.40;4.90;;;21.50;99.90;;;;;;5057262;28;20181;-87
2023/10/13 15:08:46;;;;;;;15.20;4.72;;;21.30;99.90;;;;;;5056946;28;20259;-83
2023/10/13 15:11:14;;;;;;;16.02;5.90;;;21.40;99.90;;;;;;5074839;28;20226;-87
2023/10/13 15:13:41;;;;;;;8.90;4.53;;;21.30;99.90;;;;;;5073238;28;20173;-87
2023/10/13 15:16:18;;;;;;;17.05;5.65;;;21.20;99.90;;;;;;5073582;28;20342;-86
2023/10/13 15:18:46;;;;;;;14.15;4.78;;;21.20;99.90;;;;;;5056943;28;20165;-89
2023/10/13 15:21:19;;;;;;;10.75;5.05;;;21.10;99.90;;;;;;5074880;28;20173;-90
2023/10/13 15:23:45;;;;;;;13.70;5.03;;;21.10;99.90;;;;;;5074747;28;20157;-86
2023/10/13 15:26:14;;;;;;;21.02;5.95;;;21.10;99.90;;;;;;5074572;28;20228;-89
2023/10/13 15:28:53;;;;;;;16.02;5.07;;;21.00;99.90;;;;;;5073178;28;20612;-88
2023/10/13 15:34:12;;;;;;;13.48;5.13;;;21.00;99.90;;;;;;5074640;28;20542;-89
2023/10/13 15:36:40;;;;;;;13.45;5.00;;;21.00;99.90;;;;;;5056943;28;20721;-87
2023/10/13 15:39:15;;;;;;;12.75;5.00;;;21.00;99.90;;;;;;5074135;28;20166;-89
2023/10/13 15:41:41;;;;;;;14.32;5.45;;;20.90;99.90;;;;;;5073476;28;20552;-88
2023/10/13 15:44:13;;;;;;;16.45;5.53;;;20.90;99.90;;;;;;5074072;28;20173;-85
2023/10/13 15:46:39;;;;;;;14.32;5.32;;;20.80;99.90;;;;;;5056775;28;20492;-91
2023/10/13 15:49:06;;;;;;;11.25;4.63;;;20.90;99.90;;;;;;5073240;28;20176;-88
2023/10/13 15:51:38;;;;;;;12.40;5.13;;;20.80;99.90;;;;;;5073333;28;20177;-88
2023/10/13 15:54:04;;;;;;;12.23;5.40;;;20.80;99.90;;;;;;5056426;28;20680;-87
2023/10/13 15:56:32;;;;;;;9.80;5.40;;;20.80;99.90;;;;;;5056160;28;20216;-86
2023/10/13 15:59:01;;;;;;;13.88;5.28;;;20.80;99.90;;;;;;5074243;28;20547;-89
2023/10/13 16:01:28;;;;;;;10.93;4.93;;;20.90;99.90;;;;;;5074326;28;20200;-87
2023/10/13 16:03:54;;;;;;;10.40;5.18;;;20.90;99.90;;;;;;5056366;28;20690;-86
2023/10/13 16:06:24;;;;;;;14.23;4.90;;;20.90;99.90;;;;;;5074327;28;20257;-88
2023/10/13 16:08:51;;;;;;;14.40;5.05;;;20.90;99.90;;;;;;5074343;28;20160;-87
2023/10/13 16:11:18;;;;;;;12.85;5.13;;;20.90;99.90;;;;;;5056310;28;20588;-86
2023/10/13 16:13:45;;;;;;;12.70;4.78;;;20.80;99.90;;;;;;5056000;28;20230;-85
2023/10/13 16:16:18;;;;;;;11.38;4.95;;;20.80;99.90;;;;;;5073987;28;20227;-87
2023/10/13 16:18:45;;;;;;;14.02;5.20;;;20.80;99.90;;;;;;5056021;28;20169;-88
2023/10/13 16:21:14;;;;;;;14.23;4.88;;;20.70;99.90;;;;;;5073963;28;20172;-88
2023/10/13 16:23:48;;;;;;;15.68;5.57;;;20.80;99.90;;;;;;5072783;28;20629;-86
2023/10/13 16:26:25;;;;;;;14.48;5.35;;;20.80;99.90;;;;;;5069497;28;20367;-89
2023/10/13 16:28:57;;;;;;;14.02;5.20;;;20.70;99.90;;;;;;5053060;28;20174;-87
2023/10/13 16:31:23;;;;;;;17.92;5.47;;;20.70;99.90;;;;;;5053126;28;20170;-86
2023/10/13 16:33:49;;;;;;;11.85;5.05;;;20.70;99.90;;;;;;5052949;28;20182;-89
2023/10/13 16:36:15;;;;;;;23.13;6.13;;;20.60;99.90;;;;;;5052909;28;20259;-87
2023/10/13 16:38:45;;;;;;;15.30;5.18;;;20.60;99.90;;;;;;5052797;28;20265;-86
2023/10/13 16:41:12;;;;;;;13.77;4.80;;;20.60;99.90;;;;;;5054429;28;20178;-86
2023/10/13 16:43:40;;;;;;;12.82;5.32;;;20.60;99.90;;;;;;5052443;28;20178;-86